Time;durP1;ratioP1;P1;durP2;ratioP2;P2;SDS_P1;SDS_P2;PMS_P1;PMS_P2;Temp;Humidity;BMP_temperature;BMP_pressure;BME280_temperature;BME280_humidity;BME280_pressure;Samples;Min_cycle;Max_cycle;Signal;HPM_P1;HPM_P2
2023/09/11 00:00:41;;;;;;;11.65;8.20;;;22.40;99.90;;;;;;5030262;28;20192;-72
2023/09/11 00:03:07;;;;;;;9.93;7.53;;;22.40;99.90;;;;;;5026996;28;20217;-72
2023/09/11 00:05:32;;;;;;;13.88;7.63;;;22.40;99.90;;;;;;5031534;28;20207;-73
2023/09/11 00:07:58;;;;;;;9.23;7.88;;;22.40;99.90;;;;;;5029598;28;20262;-72
2023/09/11 00:10:24;;;;;;;12.43;8.13;;;22.30;99.90;;;;;;5030587;28;20283;-73
2023/09/11 00:12:49;;;;;;;10.27;8.05;;;22.30;99.90;;;;;;5030946;28;20209;-73
2023/09/11 00:15:15;;;;;;;11.55;7.40;;;22.30;99.90;;;;;;5031082;28;20223;-73
2023/09/11 00:17:41;;;;;;;12.68;8.40;;;22.40;99.90;;;;;;5030827;28;20267;-72
2023/09/11 00:20:10;;;;;;;10.32;8.00;;;22.30;99.90;;;;;;5030382;28;20211;-71
2023/09/11 00:22:36;;;;;;;11.82;8.13;;;22.30;99.90;;;;;;5026120;28;20208;-73
2023/09/11 00:25:02;;;;;;;12.68;7.90;;;22.20;99.90;;;;;;5026702;28;20173;-72
2023/09/11 00:27:28;;;;;;;10.25;7.82;;;22.20;99.90;;;;;;5031142;28;20516;-72
2023/09/11 00:29:53;;;;;;;13.90;7.60;;;22.20;99.90;;;;;;5030599;28;20205;-72
2023/09/11 00:32:19;;;;;;;14.02;9.18;;;22.10;99.90;;;;;;5030309;28;20239;-72
2023/09/11 00:34:45;;;;;;;11.30;8.23;;;22.10;99.90;;;;;;5030783;28;20207;-72
2023/09/11 00:37:10;;;;;;;11.48;8.48;;;22.10;99.90;;;;;;5030438;28;20208;-73
2023/09/11 00:39:36;;;;;;;11.90;7.75;;;22.10;99.90;;;;;;5030895;28;20173;-73
2023/09/11 00:42:02;;;;;;;9.82;7.70;;;22.10;99.90;;;;;;5029592;28;20220;-72
2023/09/11 00:44:29;;;;;;;11.95;8.30;;;22.10;99.90;;;;;;5030478;28;20196;-72
2023/09/11 00:46:55;;;;;;;9.55;8.13;;;22.10;99.90;;;;;;5029063;28;20200;-72
2023/09/11 00:49:22;;;;;;;10.55;8.07;;;22.00;99.90;;;;;;5026503;28;20575;-72
2023/09/11 00:51:50;;;;;;;10.88;8.55;;;22.00;99.90;;;;;;5030357;28;20234;-72
2023/09/11 00:54:17;;;;;;;15.00;7.47;;;21.90;99.90;;;;;;5030467;28;21288;-72
2023/09/11 00:56:45;;;;;;;14.57;9.45;;;22.00;99.90;;;;;;5030311;28;20200;-72
2023/09/11 00:59:12;;;;;;;13.38;8.32;;;21.90;99.90;;;;;;5030289;28;20212;-72
2023/09/11 01:01:37;;;;;;;9.80;7.82;;;21.90;99.90;;;;;;5028684;28;20300;-72
2023/09/11 01:04:03;;;;;;;12.60;8.32;;;21.80;99.90;;;;;;5029864;28;20287;-72
2023/09/11 01:06:29;;;;;;;10.63;8.45;;;21.80;99.90;;;;;;5030357;28;20173;-72
2023/09/11 01:08:56;;;;;;;9.50;7.60;;;21.80;99.90;;;;;;5030145;28;20200;-72
2023/09/11 01:11:22;;;;;;;12.25;8.45;;;21.80;99.90;;;;;;5029529;28;20682;-72
2023/09/11 01:13:48;;;;;;;11.93;8.32;;;21.70;99.90;;;;;;5029994;28;20243;-73
2023/09/11 01:16:19;;;;;;;12.68;8.10;;;21.80;99.90;;;;;;5030080;28;20251;-68
2023/09/11 01:19:34;;;;;;;14.48;9.88;;;21.80;99.90;;;;;;5029246;28;20176;-72
2023/09/11 01:22:37;;;;;;;12.98;9.15;;;21.80;99.90;;;;;;5012466;28;20212;-70
2023/09/11 01:25:20;;;;;;;16.08;9.20;;;21.80;99.90;;;;;;5027991;28;20176;-72
2023/09/11 01:28:01;;;;;;;11.98;8.68;;;21.70;99.90;;;;;;5030335;28;20203;-71
2023/09/11 01:30:28;;;;;;;12.27;9.38;;;21.60;99.90;;;;;;5028176;28;20724;-72
2023/09/11 01:32:55;;;;;;;11.27;8.32;;;21.60;99.90;;;;;;5029913;28;20245;-72
2023/09/11 01:35:21;;;;;;;12.40;8.85;;;21.60;99.90;;;;;;5029972;28;20227;-72
2023/09/11 01:37:46;;;;;;;15.18;9.32;;;21.60;99.90;;;;;;5030508;28;20694;-71
2023/09/11 01:40:12;;;;;;;14.50;8.85;;;21.50;99.90;;;;;;5020101;28;20210;-71
2023/09/11 01:42:44;;;;;;;12.65;8.30;;;21.50;99.90;;;;;;5028581;28;20201;-72
2023/09/11 01:45:14;;;;;;;11.82;8.93;;;21.50;99.90;;;;;;5041026;28;20699;-71
2023/09/11 01:47:42;;;;;;;11.70;8.35;;;21.60;99.90;;;;;;5029788;28;20200;-72
2023/09/11 01:50:10;;;;;;;11.85;8.48;;;21.60;99.90;;;;;;5029286;28;20200;-72
2023/09/11 01:52:36;;;;;;;10.77;8.27;;;21.60;99.90;;;;;;5029615;28;20204;-72
2023/09/11 01:55:03;;;;;;;13.35;9.07;;;21.60;99.90;;;;;;5037072;28;20225;-71
2023/09/11 01:57:28;;;;;;;14.18;9.13;;;21.50;99.90;;;;;;5029992;28;20176;-72
2023/09/11 01:59:54;;;;;;;10.65;8.27;;;21.50;99.90;;;;;;5028031;28;20227;-72
2023/09/11 02:02:20;;;;;;;13.15;8.70;;;21.50;99.90;;;;;;5029235;28;20623;-72
2023/09/11 02:04:45;;;;;;;11.82;8.70;;;21.50;99.90;;;;;;5029915;28;20284;-72
2023/09/11 02:07:11;;;;;;;12.00;9.40;;;21.50;99.90;;;;;;5029374;28;20209;-72
2023/09/11 02:09:36;;;;;;;13.60;9.43;;;21.50;99.90;;;;;;5030096;28;20177;-71
2023/09/11 02:12:02;;;;;;;16.05;9.85;;;21.50;99.90;;;;;;5025176;28;20212;-71
2023/09/11 02:14:28;;;;;;;12.90;8.90;;;21.50;99.90;;;;;;5036545;28;20223;-72
2023/09/11 02:16:54;;;;;;;12.52;9.18;;;21.40;99.90;;;;;;5031698;28;20208;-72
2023/09/11 02:19:19;;;;;;;11.05;9.15;;;21.30;99.90;;;;;;5031987;28;20207;-71
2023/09/11 02:21:45;;;;;;;12.27;9.13;;;21.30;99.90;;;;;;5029661;28;20698;-71
2023/09/11 02:24:11;;;;;;;14.75;9.43;;;21.40;99.90;;;;;;5032845;28;20212;-71
2023/09/11 02:26:36;;;;;;;13.90;8.73;;;21.40;99.90;;;;;;5031868;28;21169;-71
2023/09/11 02:29:02;;;;;;;17.35;10.40;;;21.30;99.90;;;;;;5024157;28;20281;-72
2023/09/11 02:31:28;;;;;;;14.88;10.13;;;21.30;99.90;;;;;;5024700;28;20215;-72
2023/09/11 02:33:53;;;;;;;14.30;9.25;;;21.20;99.90;;;;;;5036357;28;20611;-72
2023/09/11 02:36:19;;;;;;;12.52;9.50;;;21.20;99.90;;;;;;5033045;28;20713;-72
2023/09/11 02:38:44;;;;;;;15.93;10.43;;;21.20;99.90;;;;;;5036043;28;20298;-72
2023/09/11 02:41:10;;;;;;;13.93;9.98;;;21.20;99.90;;;;;;5032137;28;20207;-72
2023/09/11 02:43:36;;;;;;;13.13;9.68;;;21.10;99.90;;;;;;5032576;28;20216;-72
2023/09/11 02:46:01;;;;;;;15.23;9.68;;;21.10;99.90;;;;;;5035256;28;20176;-72
2023/09/11 02:48:27;;;;;;;13.15;9.60;;;21.10;99.90;;;;;;5032428;28;20196;-71
2023/09/11 02:50:53;;;;;;;14.20;10.10;;;21.10;99.90;;;;;;5032383;28;20219;-72
2023/09/11 02:53:19;;;;;;;17.48;10.43;;;21.10;99.90;;;;;;5032100;28;20208;-73
2023/09/11 02:55:45;;;;;;;14.43;10.10;;;21.00;99.90;;;;;;5034176;28;20728;-72
2023/09/11 02:58:11;;;;;;;12.70;9.95;;;21.00;99.90;;;;;;5032049;28;20295;-72
2023/09/11 03:00:37;;;;;;;12.05;9.25;;;21.10;99.90;;;;;;5034016;28;20269;-72
2023/09/11 03:03:03;;;;;;;12.50;9.20;;;21.00;99.90;;;;;;5027271;28;20307;-72
2023/09/11 03:05:32;;;;;;;11.95;9.32;;;20.90;99.90;;;;;;5032827;28;20215;-72
2023/09/11 03:08:01;;;;;;;12.10;9.63;;;21.00;99.90;;;;;;5032104;28;20211;-72
2023/09/11 03:10:28;;;;;;;14.88;10.55;;;20.90;99.90;;;;;;5031671;28;20283;-73
2023/09/11 03:12:54;;;;;;;12.77;9.18;;;20.90;99.90;;;;;;5030536;28;20204;-72
2023/09/11 03:15:30;;;;;;;13.75;9.05;;;20.90;99.90;;;;;;5033129;28;20685;-72
2023/09/11 03:17:56;;;;;;;15.77;9.48;;;20.90;99.90;;;;;;5032077;28;20290;-72
2023/09/11 03:20:22;;;;;;;14.15;9.52;;;20.90;99.90;;;;;;5031001;28;20686;-73
2023/09/11 03:22:47;;;;;;;12.73;9.35;;;20.80;99.90;;;;;;5030939;28;20212;-72
2023/09/11 03:25:13;;;;;;;14.85;9.75;;;20.80;99.90;;;;;;5031998;28;20262;-72
2023/09/11 03:27:39;;;;;;;13.27;10.38;;;20.80;99.90;;;;;;5031627;28;20263;-72
2023/09/11 03:30:06;;;;;;;14.95;9.75;;;20.80;99.90;;;;;;5034086;28;20203;-71
2023/09/11 03:32:32;;;;;;;12.45;9.63;;;20.70;99.90;;;;;;5031574;28;20216;-72
2023/09/11 03:34:58;;;;;;;12.25;9.60;;;20.70;99.90;;;;;;5031926;28;20207;-71
2023/09/11 03:37:24;;;;;;;12.00;9.48;;;20.70;99.90;;;;;;5032408;28;20242;-72
2023/09/11 03:39:49;;;;;;;13.15;8.38;;;20.70;99.90;;;;;;5032693;28;20646;-72
2023/09/11 03:42:15;;;;;;;13.02;9.18;;;20.70;99.90;;;;;;5041258;28;20219;-72
2023/09/11 03:44:40;;;;;;;15.90;9.45;;;20.70;99.90;;;;;;5031902;28;20200;-71
2023/09/11 03:47:06;;;;;;;12.90;9.43;;;20.70;99.90;;;;;;5035360;28;20418;-70
2023/09/11 03:49:32;;;;;;;12.95;9.93;;;20.70;99.90;;;;;;5038315;28;20211;-72
2023/09/11 03:51:57;;;;;;;13.45;9.35;;;20.60;99.90;;;;;;5034192;28;20557;-72
2023/09/11 03:54:23;;;;;;;15.30;9.90;;;20.60;99.90;;;;;;5034848;28;20204;-72
2023/09/11 03:56:49;;;;;;;14.07;9.45;;;20.60;99.90;;;;;;5034284;28;20211;-71
2023/09/11 03:59:15;;;;;;;14.00;9.13;;;20.60;99.90;;;;;;5033419;28;20216;-71
2023/09/11 04:01:40;;;;;;;13.60;10.13;;;20.70;99.90;;;;;;5030195;28;20234;-72
2023/09/11 04:04:06;;;;;;;17.80;9.23;;;20.70;99.90;;;;;;5031843;28;20302;-70
2023/09/11 04:06:32;;;;;;;13.77;10.00;;;20.70;99.90;;;;;;5042717;28;20227;-72
2023/09/11 04:08:57;;;;;;;13.63;9.45;;;20.70;99.90;;;;;;5031115;28;20204;-72
2023/09/11 04:11:23;;;;;;;12.48;9.07;;;20.70;99.90;;;;;;5030423;28;20624;-72
2023/09/11 04:13:49;;;;;;;13.65;10.13;;;20.80;99.90;;;;;;5030892;28;20231;-72
2023/09/11 04:16:15;;;;;;;13.65;9.45;;;20.70;99.90;;;;;;5029162;28;20208;-73
2023/09/11 04:18:44;;;;;;;17.45;10.27;;;20.70;99.90;;;;;;5031641;28;20651;-72
2023/09/11 04:21:10;;;;;;;15.15;10.13;;;20.70;99.90;;;;;;5030353;28;20200;-72
2023/09/11 04:23:35;;;;;;;11.68;9.40;;;20.70;99.90;;;;;;5014393;28;20802;-72
2023/09/11 04:26:01;;;;;;;18.40;10.85;;;20.60;99.90;;;;;;5011491;28;20245;-72
2023/09/11 04:28:27;;;;;;;14.45;10.13;;;20.60;99.90;;;;;;5013799;28;20201;-73
2023/09/11 04:30:52;;;;;;;15.13;10.23;;;20.70;99.90;;;;;;5008394;28;20182;-72
2023/09/11 04:33:18;;;;;;;14.63;9.93;;;20.70;99.90;;;;;;5011816;28;20280;-71
2023/09/11 04:35:44;;;;;;;13.13;9.50;;;20.70;99.90;;;;;;5009831;28;20212;-72
2023/09/11 04:38:10;;;;;;;15.20;9.75;;;20.80;99.90;;;;;;5005199;28;20646;-72
2023/09/11 04:40:36;;;;;;;13.88;9.50;;;20.80;99.90;;;;;;5011688;28;20251;-72
2023/09/11 04:43:01;;;;;;;15.98;10.43;;;20.80;99.90;;;;;;5010402;28;20201;-72
2023/09/11 04:45:27;;;;;;;16.30;10.30;;;20.80;99.90;;;;;;5014359;28;20181;-71
2023/09/11 04:47:53;;;;;;;14.50;10.27;;;20.80;99.90;;;;;;5010768;28;20200;-71
2023/09/11 04:50:18;;;;;;;14.00;9.82;;;20.80;99.90;;;;;;5011483;28;20213;-69
2023/09/11 04:52:44;;;;;;;11.05;9.15;;;20.80;99.90;;;;;;5011818;28;20208;-72
2023/09/11 04:55:10;;;;;;;16.88;9.25;;;20.90;99.90;;;;;;5010863;28;20240;-72
2023/09/11 04:57:36;;;;;;;12.25;8.80;;;20.90;99.90;;;;;;5012727;28;20762;-71
2023/09/11 05:00:10;;;;;;;13.52;8.63;;;21.10;99.90;;;;;;5010233;28;20217;-72
2023/09/11 05:02:36;;;;;;;11.63;8.82;;;21.20;99.90;;;;;;5016015;28;20696;-71
2023/09/11 05:05:05;;;;;;;15.80;8.80;;;21.20;99.90;;;;;;5015347;28;20213;-72
2023/09/11 05:07:31;;;;;;;11.65;8.63;;;21.30;99.90;;;;;;5010200;28;20312;-72
2023/09/11 05:09:59;;;;;;;13.00;9.10;;;21.30;99.90;;;;;;5006420;28;20695;-72
2023/09/11 05:12:24;;;;;;;11.27;8.32;;;21.40;99.90;;;;;;5009196;28;20761;-71
2023/09/11 05:14:50;;;;;;;14.30;9.80;;;21.40;99.90;;;;;;5013009;28;20205;-72
2023/09/11 05:17:18;;;;;;;17.08;9.27;;;21.50;99.90;;;;;;5014018;28;20637;-72
2023/09/11 05:19:43;;;;;;;12.30;9.43;;;21.60;99.90;;;;;;5012125;28;20239;-72
2023/09/11 05:22:09;;;;;;;12.88;9.48;;;21.60;99.90;;;;;;5013466;28;20217;-72
2023/09/11 05:24:34;;;;;;;14.32;8.93;;;21.80;99.90;;;;;;5010744;28;20239;-72
2023/09/11 05:27:00;;;;;;;12.02;9.00;;;22.00;99.90;;;;;;5009090;28;20287;-72
2023/09/11 05:29:26;;;;;;;14.10;8.90;;;22.30;99.90;;;;;;5023359;28;20582;-73
2023/09/11 05:31:51;;;;;;;12.05;9.27;;;22.60;99.90;;;;;;5024480;28;20644;-72
2023/09/11 05:34:17;;;;;;;11.68;9.65;;;23.60;99.90;;;;;;5010476;28;20675;-72
2023/09/11 05:36:42;;;;;;;14.80;9.57;;;25.30;99.90;;;;;;5021348;28;20227;-72
2023/09/11 05:39:08;;;;;;;15.57;10.43;;;26.60;99.90;;;;;;5009704;28;20717;-71
2023/09/11 05:41:35;;;;;;;12.32;9.50;;;27.50;99.90;;;;;;5029085;28;20207;-71
2023/09/11 05:44:01;;;;;;;16.15;9.05;;;28.20;99.90;;;;;;5024432;28;20308;-73
2023/09/11 05:46:26;;;;;;;12.02;8.82;;;28.90;99.90;;;;;;5010569;28;20762;-73
2023/09/11 05:48:52;;;;;;;12.77;9.93;;;29.20;99.90;;;;;;5015064;28;20255;-73
2023/09/11 05:51:18;;;;;;;11.70;9.82;;;29.70;99.90;;;;;;5011465;28;20269;-73
2023/09/11 05:53:43;;;;;;;13.30;10.80;;;30.20;99.90;;;;;;5017625;28;20303;-73
2023/09/11 05:56:09;;;;;;;13.90;10.85;;;30.60;99.90;;;;;;5014043;28;20274;-73
2023/09/11 05:58:35;;;;;;;14.13;10.43;;;31.00;99.90;;;;;;5013787;28;20200;-73
2023/09/11 06:01:00;;;;;;;12.65;10.07;;;31.60;99.90;;;;;;5016231;28;20219;-73
2023/09/11 06:03:26;;;;;;;15.57;10.25;;;32.10;99.90;;;;;;5013914;28;20289;-72
2023/09/11 06:05:51;;;;;;;10.93;9.43;;;32.60;99.90;;;;;;5014143;28;20550;-73
2023/09/11 06:08:17;;;;;;;11.73;9.73;;;32.90;99.90;;;;;;5007117;28;20212;-72
2023/09/11 06:10:43;;;;;;;16.55;9.40;;;32.70;99.90;;;;;;5012488;28;20212;-73
2023/09/11 06:13:09;;;;;;;13.20;9.57;;;32.80;99.90;;;;;;5013449;28;20605;-73
2023/09/11 06:15:36;;;;;;;16.42;9.20;;;33.10;99.90;;;;;;5014193;28;20173;-74
2023/09/11 06:18:03;;;;;;;13.98;9.55;;;33.30;99.90;;;;;;5013394;28;20204;-73
2023/09/11 06:20:29;;;;;;;10.27;8.27;;;33.70;99.90;;;;;;5013207;28;20215;-73
2023/09/11 06:22:55;;;;;;;10.48;8.95;;;34.20;99.90;;;;;;5013469;28;20288;-72
2023/09/11 06:25:21;;;;;;;13.65;10.90;;;34.30;99.90;;;;;;5013572;28;20637;-73
2023/09/11 06:27:47;;;;;;;10.38;9.13;;;34.40;99.90;;;;;;5020687;28;20216;-74
2023/09/11 06:30:13;;;;;;;16.83;11.48;;;34.30;99.90;;;;;;5015402;28;20295;-71
2023/09/11 06:32:38;;;;;;;9.63;8.70;;;34.70;99.90;;;;;;5018248;28;20311;-73
2023/09/11 06:35:04;;;;;;;14.60;9.93;;;34.60;98.90;;;;;;5016795;28;20265;-73
2023/09/11 06:37:30;;;;;;;13.07;9.18;;;34.90;98.30;;;;;;5015225;28;20227;-70
2023/09/11 06:39:56;;;;;;;11.93;8.25;;;35.00;98.00;;;;;;5015953;28;20274;-73
2023/09/11 06:42:23;;;;;;;9.70;8.65;;;35.30;97.40;;;;;;5015148;28;20231;-73
2023/09/11 06:44:50;;;;;;;12.95;9.38;;;35.40;96.60;;;;;;5014834;28;20207;-73
2023/09/11 06:47:16;;;;;;;10.25;8.05;;;35.70;95.60;;;;;;5013372;28;20204;-74
2023/09/11 06:49:42;;;;;;;10.63;7.88;;;36.10;94.60;;;;;;5018385;28;20204;-70
2023/09/11 06:52:08;;;;;;;9.35;8.45;;;36.10;94.20;;;;;;5021555;28;20223;-71
2023/09/11 06:54:33;;;;;;;11.15;9.30;;;36.90;93.10;;;;;;5020921;28;20808;-70
2023/09/11 06:56:59;;;;;;;11.38;7.93;;;37.00;91.80;;;;;;5022948;28;20214;-71
2023/09/11 06:59:24;;;;;;;9.00;8.10;;;37.10;91.50;;;;;;5018446;28;20212;-72
2023/09/11 07:01:50;;;;;;;9.00;8.20;;;37.00;90.80;;;;;;5027876;28;20219;-72
2023/09/11 07:04:17;;;;;;;8.65;7.80;;;37.10;90.50;;;;;;5016711;28;20223;-71
2023/09/11 07:06:43;;;;;;;8.13;7.32;;;37.20;89.10;;;;;;5013690;28;20613;-71
2023/09/11 07:09:09;;;;;;;9.05;7.57;;;37.10;88.30;;;;;;5015350;28;20342;-71
2023/09/11 07:11:34;;;;;;;8.27;7.47;;;37.30;87.40;;;;;;5014315;28;20212;-71
2023/09/11 07:14:01;;;;;;;8.80;7.25;;;37.40;86.80;;;;;;5016074;28;20351;-71
2023/09/11 07:16:27;;;;;;;7.05;6.13;;;37.30;85.90;;;;;;5014748;28;20593;-71
2023/09/11 07:18:52;;;;;;;7.43;6.55;;;37.30;83.80;;;;;;5014954;28;20179;-71
2023/09/11 07:21:18;;;;;;;7.00;6.50;;;37.80;82.20;;;;;;5013897;28;20180;-72
2023/09/11 07:23:44;;;;;;;6.05;5.53;;;37.90;81.90;;;;;;5012761;28;20219;-72
2023/09/11 07:26:10;;;;;;;7.65;6.75;;;38.10;81.20;;;;;;5016618;28;20208;-73
2023/09/11 07:28:58;;;;;;;7.60;6.75;;;37.90;81.30;;;;;;5016043;28;20250;-72
2023/09/11 07:31:24;;;;;;;9.50;6.60;;;38.30;80.40;;;;;;5015565;28;20204;-72
2023/09/11 07:33:50;;;;;;;7.43;6.63;;;38.40;79.10;;;;;;5019418;28;20200;-71
2023/09/11 07:36:18;;;;;;;6.22;5.63;;;38.40;79.20;;;;;;5018124;28;20535;-71
2023/09/11 07:38:46;;;;;;;7.55;5.60;;;38.50;78.20;;;;;;5017390;28;20690;-72
2023/09/11 07:41:17;;;;;;;6.95;6.25;;;39.00;77.20;;;;;;5016897;28;20212;-72
2023/09/11 07:43:49;;;;;;;6.45;5.85;;;38.90;75.40;;;;;;5014901;28;20314;-71
2023/09/11 07:46:19;;;;;;;7.00;6.40;;;38.90;75.70;;;;;;5012302;28;20211;-72
2023/09/11 07:48:45;;;;;;;6.55;5.95;;;38.90;75.60;;;;;;5013143;28;20207;-72
2023/09/11 07:51:12;;;;;;;6.78;6.05;;;38.80;75.20;;;;;;5010439;28;20240;-72
2023/09/11 07:53:38;;;;;;;7.40;6.70;;;39.20;74.70;;;;;;5013986;28;20217;-72
2023/09/11 07:56:07;;;;;;;8.35;5.60;;;39.00;74.40;;;;;;5013070;28;20213;-72
2023/09/11 07:58:37;;;;;;;5.93;5.40;;;38.80;73.90;;;;;;5012665;28;20239;-73
2023/09/11 08:01:03;;;;;;;6.15;5.55;;;37.80;73.80;;;;;;5011818;28;20205;-71
2023/09/11 08:03:32;;;;;;;6.18;5.15;;;37.60;75.10;;;;;;5014222;28;20299;-73
2023/09/11 08:05:59;;;;;;;7.57;4.72;;;38.00;75.20;;;;;;5018689;28;20207;-71
2023/09/11 08:08:25;;;;;;;5.70;5.20;;;38.00;74.50;;;;;;5016371;28;20232;-71
2023/09/11 08:10:51;;;;;;;6.88;5.20;;;38.50;74.40;;;;;;5019809;28;20266;-71
2023/09/11 08:13:17;;;;;;;7.28;5.80;;;38.80;73.80;;;;;;5018325;28;20223;-72
2023/09/11 08:15:42;;;;;;;8.85;5.25;;;39.00;72.60;;;;;;5015771;28;20184;-72
2023/09/11 08:18:08;;;;;;;6.07;5.32;;;38.60;72.70;;;;;;5013746;28;20671;-73
2023/09/11 08:20:33;;;;;;;7.28;4.43;;;38.40;72.80;;;;;;5015723;28;20219;-72
2023/09/11 08:22:59;;;;;;;7.32;5.57;;;38.60;72.60;;;;;;5014778;28;20211;-71
2023/09/11 08:25:25;;;;;;;6.43;5.32;;;38.80;72.00;;;;;;5014621;28;20228;-71
2023/09/11 08:27:51;;;;;;;5.70;4.78;;;38.00;72.30;;;;;;5014985;28;20180;-73
2023/09/11 08:30:17;;;;;;;7.65;4.70;;;37.50;71.80;;;;;;5013296;28;20548;-74
2023/09/11 08:32:42;;;;;;;5.45;5.00;;;36.50;72.80;;;;;;5012954;28;20223;-75
2023/09/11 08:35:08;;;;;;;5.30;4.82;;;36.80;74.70;;;;;;5011183;28;20223;-73
2023/09/11 08:37:34;;;;;;;7.90;4.80;;;37.60;73.80;;;;;;5011939;28;20209;-72
2023/09/11 08:39:59;;;;;;;5.70;5.03;;;37.10;71.80;;;;;;5017857;28;20243;-71
2023/09/11 08:42:25;;;;;;;6.63;5.20;;;37.80;72.20;;;;;;5019924;28;20196;-71
2023/09/11 08:44:51;;;;;;;8.20;5.07;;;36.00;72.90;;;;;;5014143;28;20330;-73
2023/09/11 08:47:20;;;;;;;6.75;4.50;;;37.10;73.10;;;;;;5014363;28;20635;-73
2023/09/11 08:49:53;;;;;;;5.80;4.55;;;37.50;73.10;;;;;;5015760;28;20236;-72
2023/09/11 08:52:19;;;;;;;5.35;4.57;;;37.50;72.70;;;;;;5017094;28;20204;-72
2023/09/11 08:54:48;;;;;;;10.65;5.03;;;37.30;72.80;;;;;;5014083;28;20199;-71
2023/09/11 08:57:16;;;;;;;5.60;4.80;;;37.10;72.70;;;;;;5033967;28;20561;-72
2023/09/11 08:59:46;;;;;;;7.20;4.72;;;36.80;74.20;;;;;;5031679;28;20231;-71
2023/09/11 09:02:13;;;;;;;7.85;4.72;;;36.80;72.50;;;;;;5032647;28;20203;-74
2023/09/11 09:04:40;;;;;;;5.45;4.40;;;36.70;72.70;;;;;;5033395;28;20238;-75
2023/09/11 09:07:07;;;;;;;9.20;5.20;;;36.80;73.30;;;;;;5034203;28;20179;-73
2023/09/11 09:09:33;;;;;;;6.97;4.78;;;36.20;72.90;;;;;;5032657;28;20262;-74
2023/09/11 09:11:59;;;;;;;7.03;5.00;;;35.40;73.70;;;;;;5031323;28;20208;-74
2023/09/11 09:14:28;;;;;;;7.55;5.13;;;35.10;75.10;;;;;;5030706;28;20204;-73
2023/09/11 09:16:54;;;;;;;6.82;5.43;;;35.20;75.90;;;;;;5035693;28;20260;-73
2023/09/11 09:19:19;;;;;;;5.65;4.82;;;34.70;74.00;;;;;;5036226;28;20214;-73
2023/09/11 09:22:06;;;;;;;5.75;4.55;;;34.20;76.30;;;;;;5037284;28;20172;-73
2023/09/11 09:24:32;;;;;;;7.00;4.85;;;33.80;76.20;;;;;;5037201;28;20594;-72
2023/09/11 09:27:07;;;;;;;8.10;5.15;;;33.80;76.80;;;;;;5034748;28;20208;-72
2023/09/11 09:29:35;;;;;;;5.40;4.10;;;34.00;76.20;;;;;;5047446;28;20447;-72
2023/09/11 09:32:05;;;;;;;8.15;5.05;;;33.80;75.30;;;;;;5114209;22;21235;-73
2023/09/11 09:34:36;;;;;;;7.38;5.20;;;33.60;76.70;;;;;;4974579;28;20676;-73
2023/09/11 09:37:02;;;;;;;7.82;4.70;;;33.80;76.50;;;;;;4974903;28;20178;-73
2023/09/11 09:39:29;;;;;;;7.43;4.80;;;34.00;77.00;;;;;;4971861;28;20667;-73
2023/09/11 09:41:56;;;;;;;6.38;4.78;;;34.00;76.80;;;;;;4983216;28;20233;-73
2023/09/11 09:44:37;;;;;;;6.82;5.13;;;34.30;76.50;;;;;;4972962;28;20218;-73
2023/09/11 09:47:11;;;;;;;6.03;4.47;;;34.60;76.00;;;;;;4971704;28;20213;-74
2023/09/11 09:49:57;;;;;;;11.52;6.30;;;34.80;76.50;;;;;;4971703;28;20552;-72
2023/09/11 09:52:27;;;;;;;6.93;5.60;;;35.10;76.10;;;;;;4971421;28;20382;-73
2023/09/11 09:55:07;;;;;;;6.60;5.13;;;35.40;77.10;;;;;;4975674;28;20321;-73
2023/09/11 09:57:32;;;;;;;7.53;6.18;;;35.60;76.30;;;;;;4979344;28;20185;-73
2023/09/11 09:59:59;;;;;;;10.55;6.00;;;35.40;76.10;;;;;;4977370;28;20218;-73
2023/09/11 10:02:33;;;;;;;6.10;5.32;;;34.50;77.00;;;;;;4975627;28;20245;-73
2023/09/11 10:05:05;;;;;;;6.65;5.03;;;34.30;78.00;;;;;;4974125;28;20601;-72
2023/09/11 10:07:45;;;;;;;8.02;5.00;;;34.20;77.50;;;;;;4976062;28;20229;-73
2023/09/11 10:10:26;;;;;;;9.27;5.32;;;33.70;79.10;;;;;;4976583;28;20629;-73
2023/09/11 10:13:06;;;;;;;7.40;5.68;;;34.10;79.00;;;;;;4974499;28;20252;-73
2023/09/11 10:15:37;;;;;;;9.52;4.97;;;34.30;78.80;;;;;;4971421;28;20170;-73
2023/09/11 10:18:04;;;;;;;7.85;5.57;;;34.00;79.70;;;;;;4974290;28;20259;-73
2023/09/11 10:20:31;;;;;;;7.97;4.88;;;34.30;80.20;;;;;;4971696;28;20630;-73
2023/09/11 10:22:59;;;;;;;7.95;5.35;;;34.50;80.00;;;;;;4972293;28;20270;-73
2023/09/11 10:25:28;;;;;;;9.82;4.95;;;33.80;80.30;;;;;;4970662;28;20202;-73
2023/09/11 10:27:58;;;;;;;8.00;4.63;;;33.70;81.10;;;;;;4970032;28;20734;-72
2023/09/11 10:30:26;;;;;;;6.85;5.30;;;33.80;81.50;;;;;;4979832;28;20704;-73
2023/09/11 10:33:04;;;;;;;10.95;5.55;;;33.80;80.70;;;;;;4977465;28;20226;-71
2023/09/11 10:35:33;;;;;;;6.10;4.97;;;33.50;81.50;;;;;;4971387;28;20209;-73
2023/09/11 10:38:02;;;;;;;11.05;5.70;;;33.30;82.30;;;;;;4974076;28;20246;-73
2023/09/11 10:40:31;;;;;;;8.50;5.28;;;33.60;82.00;;;;;;4979668;28;20765;-73
2023/09/11 10:42:57;;;;;;;5.75;4.85;;;33.80;82.10;;;;;;4976737;28;20206;-72
2023/09/11 10:45:33;;;;;;;6.85;5.05;;;34.10;82.40;;;;;;4980811;28;20256;-73
2023/09/11 10:47:59;;;;;;;8.95;5.07;;;34.30;81.60;;;;;;4975110;28;20205;-74
2023/09/11 10:50:37;;;;;;;13.07;6.40;;;33.50;81.50;;;;;;4976482;28;20209;-73
2023/09/11 10:53:07;;;;;;;12.75;5.25;;;33.20;83.80;;;;;;4976056;28;20225;-73
2023/09/11 10:55:33;;;;;;;8.40;4.78;;;33.70;83.10;;;;;;4975342;28;20692;-73
2023/09/11 10:58:03;;;;;;;10.30;4.88;;;34.10;82.90;;;;;;4976474;28;20186;-72
2023/09/11 11:00:29;;;;;;;9.40;5.38;;;34.30;82.50;;;;;;4978741;28;20206;-73
2023/09/11 11:02:57;;;;;;;7.43;6.68;;;34.50;81.60;;;;;;4974325;28;20712;-70
2023/09/11 11:05:25;;;;;;;8.60;5.38;;;33.80;81.20;;;;;;4976788;28;20575;-73
2023/09/11 11:07:51;;;;;;;7.25;4.95;;;33.90;82.30;;;;;;4977972;28;20221;-73
2023/09/11 11:10:19;;;;;;;15.32;8.10;;;34.00;80.80;;;;;;4983343;28;20292;-72
2023/09/11 11:12:45;;;;;;;10.98;5.88;;;34.10;80.40;;;;;;4980230;28;20195;-73
2023/09/11 11:15:25;;;;;;;7.75;5.00;;;34.00;80.60;;;;;;4979155;28;20214;-73
2023/09/11 11:18:08;;;;;;;5.40;4.90;;;34.10;81.30;;;;;;4969641;28;20213;-73
2023/09/11 11:20:35;;;;;;;7.47;4.45;;;34.10;81.40;;;;;;4973180;28;20261;-73
2023/09/11 11:23:12;;;;;;;7.88;3.95;;;34.00;81.20;;;;;;4975828;28;20242;-72
2023/09/11 11:25:42;;;;;;;9.88;4.72;;;34.00;80.50;;;;;;4973887;28;20205;-72
2023/09/11 11:28:15;;;;;;;6.82;4.47;;;34.00;80.20;;;;;;4966951;28;20215;-72
2023/09/11 11:30:43;;;;;;;9.07;5.00;;;33.90;80.00;;;;;;4974169;28;20549;-73
2023/09/11 11:33:15;;;;;;;6.57;5.25;;;33.80;80.10;;;;;;4976317;28;20285;-72
2023/09/11 11:35:45;;;;;;;10.32;5.10;;;33.70;80.50;;;;;;4974973;28;20581;-73
2023/09/11 11:38:17;;;;;;;10.18;5.07;;;33.70;82.00;;;;;;4974369;28;20771;-73
2023/09/11 11:40:49;;;;;;;9.25;4.60;;;33.50;81.20;;;;;;4973787;28;20221;-72
2023/09/11 11:43:15;;;;;;;5.57;4.53;;;33.60;81.40;;;;;;4977723;28;20244;-73
2023/09/11 11:45:47;;;;;;;8.93;5.53;;;33.60;81.90;;;;;;4981176;28;20727;-72
2023/09/11 11:48:13;;;;;;;7.68;4.75;;;33.40;81.80;;;;;;4981624;28;20218;-72
2023/09/11 11:50:46;;;;;;;8.13;4.40;;;33.30;82.00;;;;;;4979726;28;20217;-73
2023/09/11 11:53:15;;;;;;;15.93;5.38;;;33.30;82.30;;;;;;4977283;28;20591;-73
2023/09/11 11:55:42;;;;;;;7.30;4.40;;;33.30;82.40;;;;;;4974551;28;20202;-72
2023/09/11 11:58:09;;;;;;;8.70;5.38;;;33.30;81.50;;;;;;4973236;28;20245;-72
2023/09/11 12:00:54;;;;;;;10.00;4.68;;;33.30;81.70;;;;;;4981189;28;20282;-73
2023/09/11 12:03:20;;;;;;;9.27;4.38;;;33.50;80.70;;;;;;4976401;28;20225;-72
2023/09/11 12:05:46;;;;;;;8.73;3.95;;;33.50;79.50;;;;;;4974763;28;20591;-72
2023/09/11 12:08:12;;;;;;;6.90;4.35;;;33.20;78.10;;;;;;4976863;28;20217;-74
2023/09/11 12:10:48;;;;;;;9.75;4.78;;;33.20;79.80;;;;;;4974763;28;20207;-72
2023/09/11 12:13:17;;;;;;;13.93;4.88;;;33.30;78.20;;;;;;4974325;28;20332;-71
2023/09/11 12:15:50;;;;;;;7.47;5.43;;;33.20;77.30;;;;;;4974318;28;20183;-72
2023/09/11 12:18:16;;;;;;;7.07;4.88;;;33.30;77.70;;;;;;4980628;28;20302;-71
2023/09/11 12:20:54;;;;;;;7.18;5.20;;;33.40;78.20;;;;;;4980101;28;20221;-72
2023/09/11 12:23:20;;;;;;;9.65;4.07;;;33.40;78.10;;;;;;4978279;28;20214;-72
2023/09/11 12:25:47;;;;;;;10.40;4.63;;;33.20;74.00;;;;;;4978702;28;20261;-71
2023/09/11 12:28:14;;;;;;;7.95;4.40;;;33.20;75.50;;;;;;4978828;28;20635;-73
2023/09/11 12:30:41;;;;;;;9.73;3.88;;;33.10;77.20;;;;;;4980897;28;20185;-71
2023/09/11 12:33:09;;;;;;;9.90;3.83;;;33.00;77.40;;;;;;4974484;28;20761;-71
2023/09/11 12:35:35;;;;;;;9.68;4.30;;;32.90;78.10;;;;;;4976961;28;20596;-73
2023/09/11 12:38:02;;;;;;;6.72;3.95;;;32.90;78.20;;;;;;4974881;28;20280;-72
2023/09/11 12:40:28;;;;;;;8.23;4.18;;;32.60;77.80;;;;;;4974179;28;20292;-72
2023/09/11 12:42:54;;;;;;;9.93;4.47;;;32.60;79.20;;;;;;4973482;28;20571;-72